sensor_id;sensor_type;location;lat;lon;timestamp;temperature;humidity
6178;DHT22;3122;48.208;11.174;2024-03-22T00:04:28;5.80;1.00
6178;DHT22;3122;48.208;11.174;2024-03-22T00:09:29;5.60;1.00
6178;DHT22;3122;48.208;11.174;2024-03-22T00:14:29;5.50;1.00
6178;DHT22;3122;48.208;11.174;2024-03-22T00:19:30;5.50;1.00
6178;DHT22;3122;48.208;11.174;2024-03-22T00:24:30;5.50;1.00
6178;DHT22;3122;48.208;11.174;2024-03-22T00:29:31;5.60;1.00
6178;DHT22;3122;48.208;11.174;2024-03-22T00:34:31;5.40;1.00
6178;DHT22;3122;48.208;11.174;2024-03-22T00:39:32;5.40;1.00
6178;DHT22;3122;48.208;11.174;2024-03-22T00:44:32;5.30;1.00
6178;DHT22;3122;48.208;11.174;2024-03-22T00:49:33;5.40;1.00
6178;DHT22;3122;48.208;11.174;2024-03-22T00:54:33;5.40;1.00
6178;DHT22;3122;48.208;11.174;2024-03-22T00:59:34;5.40;1.00
6178;DHT22;3122;48.208;11.174;2024-03-22T01:04:34;5.40;1.00
6178;DHT22;3122;48.208;11.174;2024-03-22T01:09:35;5.50;1.00
6178;DHT22;3122;48.208;11.174;2024-03-22T01:14:36;5.40;1.00
6178;DHT22;3122;48.208;11.174;2024-03-22T01:19:36;5.30;1.00
6178;DHT22;3122;48.208;11.174;2024-03-22T01:24:37;5.40;1.00
6178;DHT22;3122;48.208;11.174;2024-03-22T01:29:38;5.40;1.00
6178;DHT22;3122;48.208;11.174;2024-03-22T01:34:38;5.30;1.00
6178;DHT22;3122;48.208;11.174;2024-03-22T01:39:39;5.30;1.00
6178;DHT22;3122;48.208;11.174;2024-03-22T01:44:40;5.30;1.00
6178;DHT22;3122;48.208;11.174;2024-03-22T01:49:41;5.20;1.00
6178;DHT22;3122;48.208;11.174;2024-03-22T01:54:41;5.10;1.00
6178;DHT22;3122;48.208;11.174;2024-03-22T01:59:43;5.10;1.00
6178;DHT22;3122;48.208;11.174;2024-03-22T02:04:44;5.10;1.00
6178;DHT22;3122;48.208;11.174;2024-03-22T02:09:44;5.10;1.00
6178;DHT22;3122;48.208;11.174;2024-03-22T02:14:45;5.00;1.00
6178;DHT22;3122;48.208;11.174;2024-03-22T02:19:46;5.00;1.00
6178;DHT22;3122;48.208;11.174;2024-03-22T02:24:46;5.00;1.00
6178;DHT22;3122;48.208;11.174;2024-03-22T02:29:47;5.00;1.00
6178;DHT22;3122;48.208;11.174;2024-03-22T02:34:47;4.90;1.00
6178;DHT22;3122;48.208;11.174;2024-03-22T02:39:48;4.90;1.00
6178;DHT22;3122;48.208;11.174;2024-03-22T02:44:48;4.90;1.00
6178;DHT22;3122;48.208;11.174;2024-03-22T02:49:49;5.00;1.00
6178;DHT22;3122;48.208;11.174;2024-03-22T02:54:49;4.80;1.00
6178;DHT22;3122;48.208;11.174;2024-03-22T02:59:50;4.80;1.00
6178;DHT22;3122;48.208;11.174;2024-03-22T03:04:50;4.90;1.00
6178;DHT22;3122;48.208;11.174;2024-03-22T03:09:51;4.80;1.00
6178;DHT22;3122;48.208;11.174;2024-03-22T03:14:51;4.80;1.00
6178;DHT22;3122;48.208;11.174;2024-03-22T03:19:52;4.70;1.00
6178;DHT22;3122;48.208;11.174;2024-03-22T03:24:52;4.70;1.00
6178;DHT22;3122;48.208;11.174;2024-03-22T03:29:53;4.50;1.00
6178;DHT22;3122;48.208;11.174;2024-03-22T03:34:54;4.40;1.00
6178;DHT22;3122;48.208;11.174;2024-03-22T03:39:54;4.40;1.00
6178;DHT22;3122;48.208;11.174;2024-03-22T03:44:55;4.40;1.00
6178;DHT22;3122;48.208;11.174;2024-03-22T03:49:55;4.30;1.00
6178;DHT22;3122;48.208;11.174;2024-03-22T03:54:56;4.40;1.00
6178;DHT22;3122;48.208;11.174;2024-03-22T03:59:57;4.60;1.00
6178;DHT22;3122;48.208;11.174;2024-03-22T04:04:57;4.90;1.00
6178;DHT22;3122;48.208;11.174;2024-03-22T04:09:58;5.10;1.00
6178;DHT22;3122;48.208;11.174;2024-03-22T04:15:00;5.10;1.00
6178;DHT22;3122;48.208;11.174;2024-03-22T04:20:01;5.20;1.00
6178;DHT22;3122;48.208;11.174;2024-03-22T04:25:03;5.10;1.00
6178;DHT22;3122;48.208;11.174;2024-03-22T04:30:04;5.00;1.00
6178;DHT22;3122;48.208;11.174;2024-03-22T04:35:04;5.00;1.00
6178;DHT22;3122;48.208;11.174;2024-03-22T04:40:06;4.90;1.00
6178;DHT22;3122;48.208;11.174;2024-03-22T04:45:06;4.90;1.00
6178;DHT22;3122;48.208;11.174;2024-03-22T04:50:07;4.90;1.00
6178;DHT22;3122;48.208;11.174;2024-03-22T04:55:09;4.80;1.00
6178;DHT22;3122;48.208;11.174;2024-03-22T05:00:10;4.70;1.00
6178;DHT22;3122;48.208;11.174;2024-03-22T05:05:11;4.70;1.00
6178;DHT22;3122;48.208;11.174;2024-03-22T05:10:12;4.70;1.00
6178;DHT22;3122;48.208;11.174;2024-03-22T05:15:13;4.70;1.00
6178;DHT22;3122;48.208;11.174;2024-03-22T05:20:14;4.70;1.00
6178;DHT22;3122;48.208;11.174;2024-03-22T05:25:14;4.60;1.00
6178;DHT22;3122;48.208;11.174;2024-03-22T05:30:15;4.90;1.00
6178;DHT22;3122;48.208;11.174;2024-03-22T05:35:16;5.20;1.00
6178;DHT22;3122;48.208;11.174;2024-03-22T05:40:17;5.30;1.00
6178;DHT22;3122;48.208;11.174;2024-03-22T05:45:17;5.30;1.00
6178;DHT22;3122;48.208;11.174;2024-03-22T05:50:18;5.20;1.00
6178;DHT22;3122;48.208;11.174;2024-03-22T05:55:20;5.20;1.00
6178;DHT22;3122;48.208;11.174;2024-03-22T06:00:21;5.10;1.00
6178;DHT22;3122;48.208;11.174;2024-03-22T06:05:22;5.10;1.00
6178;DHT22;3122;48.208;11.174;2024-03-22T06:10:22;5.20;1.00
6178;DHT22;3122;48.208;11.174;2024-03-22T06:15:23;5.30;1.00
6178;DHT22;3122;48.208;11.174;2024-03-22T06:20:23;5.40;1.00
6178;DHT22;3122;48.208;11.174;2024-03-22T06:25:24;5.40;1.00
6178;DHT22;3122;48.208;11.174;2024-03-22T06:30:24;5.60;1.00
6178;DHT22;3122;48.208;11.174;2024-03-22T06:35:25;5.70;1.00
6178;DHT22;3122;48.208;11.174;2024-03-22T06:40:25;5.90;1.00
6178;DHT22;3122;48.208;11.174;2024-03-22T06:45:26;5.90;1.00
6178;DHT22;3122;48.208;11.174;2024-03-22T06:50:27;6.00;1.00
6178;DHT22;3122;48.208;11.174;2024-03-22T06:55:27;6.10;1.00
6178;DHT22;3122;48.208;11.174;2024-03-22T07:00:28;6.30;1.00
6178;DHT22;3122;48.208;11.174;2024-03-22T07:05:29;6.40;1.00
6178;DHT22;3122;48.208;11.174;2024-03-22T07:10:29;6.70;1.00
6178;DHT22;3122;48.208;11.174;2024-03-22T07:15:31;7.00;1.00
6178;DHT22;3122;48.208;11.174;2024-03-22T07:20:32;7.20;1.00
6178;DHT22;3122;48.208;11.174;2024-03-22T07:25:33;7.50;1.00
6178;DHT22;3122;48.208;11.174;2024-03-22T07:30:34;7.70;1.00
6178;DHT22;3122;48.208;11.174;2024-03-22T07:35:35;7.70;1.00
6178;DHT22;3122;48.208;11.174;2024-03-22T07:40:36;7.90;1.00
6178;DHT22;3122;48.208;11.174;2024-03-22T07:45:37;8.10;1.00
6178;DHT22;3122;48.208;11.174;2024-03-22T07:50:37;8.30;1.00
6178;DHT22;3122;48.208;11.174;2024-03-22T07:55:38;8.60;1.00
6178;DHT22;3122;48.208;11.174;2024-03-22T08:00:38;8.80;1.00
6178;DHT22;3122;48.208;11.174;2024-03-22T08:05:39;9.00;1.00
6178;DHT22;3122;48.208;11.174;2024-03-22T08:10:39;9.20;1.00
6178;DHT22;3122;48.208;11.174;2024-03-22T08:15:40;9.50;1.00
6178;DHT22;3122;48.208;11.174;2024-03-22T08:20:41;9.70;1.00
6178;DHT22;3122;48.208;11.174;2024-03-22T08:25:42;9.90;1.00
6178;DHT22;3122;48.208;11.174;2024-03-22T08:30:43;10.00;1.00
6178;DHT22;3122;48.208;11.174;2024-03-22T08:35:43;10.10;1.00
6178;DHT22;3122;48.208;11.174;2024-03-22T08:40:44;10.20;1.00
6178;DHT22;3122;48.208;11.174;2024-03-22T08:45:44;10.30;1.00
6178;DHT22;3122;48.208;11.174;2024-03-22T08:50:45;10.40;1.00
6178;DHT22;3122;48.208;11.174;2024-03-22T08:55:48;10.50;1.00
6178;DHT22;3122;48.208;11.174;2024-03-22T09:00:49;10.80;1.00
6178;DHT22;3122;48.208;11.174;2024-03-22T09:05:53;10.90;1.00
6178;DHT22;3122;48.208;11.174;2024-03-22T09:10:54;11.00;1.00
6178;DHT22;3122;48.208;11.174;2024-03-22T09:15:58;11.30;1.00
6178;DHT22;3122;48.208;11.174;2024-03-22T09:20:59;11.60;1.00
6178;DHT22;3122;48.208;11.174;2024-03-22T09:25:59;11.80;1.00
6178;DHT22;3122;48.208;11.174;2024-03-22T09:31:07;12.00;1.00
6178;DHT22;3122;48.208;11.174;2024-03-22T09:36:07;12.20;1.00
6178;DHT22;3122;48.208;11.174;2024-03-22T09:41:08;12.10;1.00
6178;DHT22;3122;48.208;11.174;2024-03-22T09:46:08;12.30;1.00
6178;DHT22;3122;48.208;11.174;2024-03-22T09:51:09;12.50;1.00
6178;DHT22;3122;48.208;11.174;2024-03-22T09:56:14;12.70;1.00
6178;DHT22;3122;48.208;11.174;2024-03-22T10:01:15;12.80;1.00
6178;DHT22;3122;48.208;11.174;2024-03-22T10:06:16;12.60;1.00
6178;DHT22;3122;48.208;11.174;2024-03-22T10:11:17;12.70;1.00
6178;DHT22;3122;48.208;11.174;2024-03-22T10:16:18;12.90;1.00
6178;DHT22;3122;48.208;11.174;2024-03-22T10:21:19;13.00;1.00
6178;DHT22;3122;48.208;11.174;2024-03-22T10:26:20;13.20;1.00
6178;DHT22;3122;48.208;11.174;2024-03-22T10:31:20;13.10;1.00
6178;DHT22;3122;48.208;11.174;2024-03-22T10:36:21;13.10;1.00
6178;DHT22;3122;48.208;11.174;2024-03-22T10:41:22;13.00;1.00
6178;DHT22;3122;48.208;11.174;2024-03-22T10:46:31;13.00;1.00
6178;DHT22;3122;48.208;11.174;2024-03-22T10:51:34;13.20;1.00
6178;DHT22;3122;48.208;11.174;2024-03-22T10:56:36;13.30;1.00
6178;DHT22;3122;48.208;11.174;2024-03-22T11:01:37;13.40;1.00
6178;DHT22;3122;48.208;11.174;2024-03-22T11:06:38;13.40;1.00
6178;DHT22;3122;48.208;11.174;2024-03-22T11:11:41;13.50;1.00
6178;DHT22;3122;48.208;11.174;2024-03-22T11:16:45;13.50;1.00
6178;DHT22;3122;48.208;11.174;2024-03-22T11:21:45;13.60;1.00
6178;DHT22;3122;48.208;11.174;2024-03-22T11:26:46;13.60;1.00
6178;DHT22;3122;48.208;11.174;2024-03-22T11:31:47;13.50;1.00
6178;DHT22;3122;48.208;11.174;2024-03-22T11:36:48;13.60;1.00
6178;DHT22;3122;48.208;11.174;2024-03-22T11:41:51;13.50;1.00
6178;DHT22;3122;48.208;11.174;2024-03-22T11:46:52;13.90;1.00
6178;DHT22;3122;48.208;11.174;2024-03-22T11:51:53;13.90;1.00
6178;DHT22;3122;48.208;11.174;2024-03-22T11:56:56;14.40;1.00
6178;DHT22;3122;48.208;11.174;2024-03-22T12:01:57;14.30;1.00
6178;DHT22;3122;48.208;11.174;2024-03-22T12:06:57;14.50;1.00
6178;DHT22;3122;48.208;11.174;2024-03-22T12:11:59;14.50;1.00
6178;DHT22;3122;48.208;11.174;2024-03-22T12:16:59;14.80;1.00
6178;DHT22;3122;48.208;11.174;2024-03-22T12:22:01;15.00;1.00
6178;DHT22;3122;48.208;11.174;2024-03-22T12:27:03;15.10;1.00
6178;DHT22;3122;48.208;11.174;2024-03-22T12:32:04;15.20;1.00
6178;DHT22;3122;48.208;11.174;2024-03-22T12:37:04;15.10;1.00
6178;DHT22;3122;48.208;11.174;2024-03-22T12:42:05;15.10;1.00
6178;DHT22;3122;48.208;11.174;2024-03-22T12:47:06;15.00;1.00
6178;DHT22;3122;48.208;11.174;2024-03-22T12:52:07;15.30;1.00
6178;DHT22;3122;48.208;11.174;2024-03-22T12:57:08;15.40;1.00
6178;DHT22;3122;48.208;11.174;2024-03-22T13:02:08;15.40;1.00
6178;DHT22;3122;48.208;11.174;2024-03-22T13:07:09;15.50;1.00
6178;DHT22;3122;48.208;11.174;2024-03-22T13:12:09;15.40;1.00
6178;DHT22;3122;48.208;11.174;2024-03-22T13:17:10;15.60;1.00
6178;DHT22;3122;48.208;11.174;2024-03-22T13:22:10;15.60;1.00
6178;DHT22;3122;48.208;11.174;2024-03-22T13:27:13;15.70;1.00
6178;DHT22;3122;48.208;11.174;2024-03-22T13:32:14;15.80;1.00
6178;DHT22;3122;48.208;11.174;2024-03-22T13:37:14;15.80;1.00
6178;DHT22;3122;48.208;11.174;2024-03-22T13:42:15;15.90;1.00
6178;DHT22;3122;48.208;11.174;2024-03-22T13:47:15;15.90;1.00
6178;DHT22;3122;48.208;11.174;2024-03-22T13:52:16;16.10;1.00
6178;DHT22;3122;48.208;11.174;2024-03-22T13:57:18;16.20;1.00
6178;DHT22;3122;48.208;11.174;2024-03-22T14:02:19;16.40;1.00
6178;DHT22;3122;48.208;11.174;2024-03-22T14:07:20;16.60;1.00
6178;DHT22;3122;48.208;11.174;2024-03-22T14:12:20;16.70;1.00
6178;DHT22;3122;48.208;11.174;2024-03-22T14:17:21;16.80;1.00
6178;DHT22;3122;48.208;11.174;2024-03-22T14:22:22;16.80;1.00
6178;DHT22;3122;48.208;11.174;2024-03-22T14:27:23;16.80;1.00
6178;DHT22;3122;48.208;11.174;2024-03-22T14:32:23;16.90;1.00
6178;DHT22;3122;48.208;11.174;2024-03-22T14:37:24;16.80;1.00
6178;DHT22;3122;48.208;11.174;2024-03-22T14:42:25;16.70;1.00
6178;DHT22;3122;48.208;11.174;2024-03-22T14:47:26;16.60;1.00
6178;DHT22;3122;48.208;11.174;2024-03-22T14:52:26;16.60;1.00
6178;DHT22;3122;48.208;11.174;2024-03-22T14:57:27;16.90;1.00
6178;DHT22;3122;48.208;11.174;2024-03-22T15:02:27;17.00;1.00
6178;DHT22;3122;48.208;11.174;2024-03-22T15:07:28;17.00;1.00
6178;DHT22;3122;48.208;11.174;2024-03-22T15:12:28;16.90;1.00
6178;DHT22;3122;48.208;11.174;2024-03-22T15:17:30;17.10;1.00
6178;DHT22;3122;48.208;11.174;2024-03-22T15:22:31;17.00;1.00
6178;DHT22;3122;48.208;11.174;2024-03-22T15:27:32;17.10;1.00
6178;DHT22;3122;48.208;11.174;2024-03-22T15:32:32;17.10;1.00
6178;DHT22;3122;48.208;11.174;2024-03-22T15:37:37;17.10;1.00
6178;DHT22;3122;48.208;11.174;2024-03-22T15:42:38;17.00;1.00
6178;DHT22;3122;48.208;11.174;2024-03-22T15:47:39;16.90;1.00
6178;DHT22;3122;48.208;11.174;2024-03-22T15:52:40;17.10;1.00
6178;DHT22;3122;48.208;11.174;2024-03-22T15:57:40;16.90;1.00
6178;DHT22;3122;48.208;11.174;2024-03-22T16:02:41;16.90;1.00
6178;DHT22;3122;48.208;11.174;2024-03-22T16:07:41;17.00;1.00
6178;DHT22;3122;48.208;11.174;2024-03-22T16:12:42;17.20;1.00
6178;DHT22;3122;48.208;11.174;2024-03-22T16:17:43;17.00;1.00
6178;DHT22;3122;48.208;11.174;2024-03-22T16:22:43;16.60;1.00
6178;DHT22;3122;48.208;11.174;2024-03-22T16:27:44;16.30;1.00
6178;DHT22;3122;48.208;11.174;2024-03-22T16:32:44;16.10;1.00
6178;DHT22;3122;48.208;11.174;2024-03-22T16:37:45;15.90;1.00
6178;DHT22;3122;48.208;11.174;2024-03-22T16:42:47;15.90;1.00
6178;DHT22;3122;48.208;11.174;2024-03-22T16:47:51;15.80;1.00
6178;DHT22;3122;48.208;11.174;2024-03-22T16:52:51;15.70;1.00
6178;DHT22;3122;48.208;11.174;2024-03-22T16:57:52;15.50;1.00
6178;DHT22;3122;48.208;11.174;2024-03-22T17:02:53;15.20;1.00
6178;DHT22;3122;48.208;11.174;2024-03-22T17:07:54;15.00;1.00
6178;DHT22;3122;48.208;11.174;2024-03-22T17:12:54;14.80;1.00
6178;DHT22;3122;48.208;11.174;2024-03-22T17:17:55;14.50;1.00
6178;DHT22;3122;48.208;11.174;2024-03-22T17:22:56;14.30;1.00
6178;DHT22;3122;48.208;11.174;2024-03-22T17:27:57;14.20;1.00
6178;DHT22;3122;48.208;11.174;2024-03-22T17:32:58;14.00;1.00
6178;DHT22;3122;48.208;11.174;2024-03-22T17:37:59;13.90;1.00
6178;DHT22;3122;48.208;11.174;2024-03-22T17:43:00;13.70;1.00
6178;DHT22;3122;48.208;11.174;2024-03-22T17:48:00;13.30;1.00
6178;DHT22;3122;48.208;11.174;2024-03-22T17:53:01;13.10;1.00
6178;DHT22;3122;48.208;11.174;2024-03-22T17:58:01;13.00;1.00
6178;DHT22;3122;48.208;11.174;2024-03-22T18:03:02;12.80;1.00
6178;DHT22;3122;48.208;11.174;2024-03-22T18:08:03;12.70;1.00
6178;DHT22;3122;48.208;11.174;2024-03-22T18:13:03;12.60;1.00
6178;DHT22;3122;48.208;11.174;2024-03-22T18:18:04;12.70;1.00
6178;DHT22;3122;48.208;11.174;2024-03-22T18:23:05;12.50;1.00
6178;DHT22;3122;48.208;11.174;2024-03-22T18:28:06;12.30;1.00
6178;DHT22;3122;48.208;11.174;2024-03-22T18:33:06;12.20;1.00
6178;DHT22;3122;48.208;11.174;2024-03-22T18:38:07;12.10;1.00
6178;DHT22;3122;48.208;11.174;2024-03-22T18:43:07;12.00;1.00
6178;DHT22;3122;48.208;11.174;2024-03-22T18:48:08;11.90;1.00
6178;DHT22;3122;48.208;11.174;2024-03-22T18:53:09;11.70;1.00
6178;DHT22;3122;48.208;11.174;2024-03-22T18:58:09;11.70;1.00
6178;DHT22;3122;48.208;11.174;2024-03-22T19:03:10;11.70;1.00
6178;DHT22;3122;48.208;11.174;2024-03-22T19:08:11;11.70;1.00
6178;DHT22;3122;48.208;11.174;2024-03-22T19:13:13;11.60;1.00
6178;DHT22;3122;48.208;11.174;2024-03-22T19:18:13;11.50;1.00
6178;DHT22;3122;48.208;11.174;2024-03-22T19:23:14;11.50;1.00
6178;DHT22;3122;48.208;11.174;2024-03-22T19:28:15;11.50;1.00
6178;DHT22;3122;48.208;11.174;2024-03-22T19:33:15;11.40;1.00
6178;DHT22;3122;48.208;11.174;2024-03-22T19:38:18;11.50;1.00
6178;DHT22;3122;48.208;11.174;2024-03-22T19:43:19;11.60;1.00
6178;DHT22;3122;48.208;11.174;2024-03-22T19:48:20;11.60;1.00
6178;DHT22;3122;48.208;11.174;2024-03-22T19:53:20;11.60;1.00
6178;DHT22;3122;48.208;11.174;2024-03-22T19:58:21;11.60;1.00
6178;DHT22;3122;48.208;11.174;2024-03-22T20:03:22;11.50;1.00
6178;DHT22;3122;48.208;11.174;2024-03-22T20:08:23;11.50;1.00
6178;DHT22;3122;48.208;11.174;2024-03-22T20:13:24;11.60;1.00
6178;DHT22;3122;48.208;11.174;2024-03-22T20:18:25;11.50;1.00
6178;DHT22;3122;48.208;11.174;2024-03-22T20:23:26;11.40;1.00
6178;DHT22;3122;48.208;11.174;2024-03-22T20:28:27;11.40;1.00
6178;DHT22;3122;48.208;11.174;2024-03-22T20:33:27;11.30;1.00
